createdAt,value
2019-03-28T00:00:24.678Z,2.00
2019-03-28T00:02:53.042Z,2.00
2019-03-28T00:05:21.440Z,6.53
2019-03-28T00:07:49.808Z,2.25
2019-03-28T00:10:18.420Z,1.85
2019-03-28T00:12:46.729Z,2.08
2019-03-28T00:15:15.093Z,2.20
2019-03-28T00:17:43.402Z,1.92
2019-03-28T00:20:11.682Z,1.60
2019-03-28T00:22:42.109Z,1.50
2019-03-28T00:25:13.002Z,1.50
2019-03-28T00:27:41.431Z,1.63
2019-03-28T00:30:09.801Z,1.50
2019-03-28T00:32:38.260Z,1.92
2019-03-28T00:35:07.006Z,2.15
2019-03-28T00:37:35.506Z,1.65
2019-03-28T00:40:05.913Z,2.00
2019-03-28T00:42:35.094Z,1.98
2019-03-28T00:45:04.127Z,1.70
2019-03-28T00:47:32.500Z,1.67
2019-03-28T00:50:00.882Z,1.70
2019-03-28T00:52:29.254Z,1.80
2019-03-28T00:54:57.977Z,2.10
2019-03-28T00:57:26.350Z,1.67
2019-03-28T00:59:54.879Z,4.33
2019-03-28T01:02:23.236Z,3.47
2019-03-28T01:04:52.089Z,3.30
2019-03-28T01:07:20.432Z,2.50
2019-03-28T01:09:48.779Z,2.08
2019-03-28T01:12:17.133Z,2.87
2019-03-28T01:14:45.659Z,2.40
2019-03-28T01:17:14.093Z,2.57
2019-03-28T01:19:42.459Z,2.40
2019-03-28T01:22:10.866Z,2.08
2019-03-28T01:24:39.261Z,2.10
2019-03-28T01:27:07.645Z,2.27
2019-03-28T01:29:35.961Z,2.30
2019-03-28T01:32:04.354Z,2.55
2019-03-28T01:34:33.233Z,1.92
2019-03-28T01:37:01.698Z,1.90
2019-03-28T01:39:30.067Z,1.77
2019-03-28T01:41:58.450Z,1.50
2019-03-28T01:44:26.812Z,1.50
2019-03-28T01:46:55.192Z,1.40
2019-03-28T01:49:24.372Z,1.62
2019-03-28T01:51:52.752Z,1.35
2019-03-28T01:54:21.142Z,1.80
2019-03-28T01:56:49.431Z,1.62
2019-03-28T01:59:17.798Z,2.00
2019-03-28T02:01:46.109Z,1.60
2019-03-28T02:04:14.417Z,2.03
2019-03-28T02:06:42.779Z,1.50
2019-03-28T02:09:11.225Z,1.70
2019-03-28T02:11:40.285Z,1.80
2019-03-28T02:14:09.245Z,1.22
2019-03-28T02:16:37.671Z,1.40
2019-03-28T02:19:06.054Z,1.47
2019-03-28T02:21:34.419Z,1.85
2019-03-28T02:24:02.805Z,1.30
2019-03-28T02:26:31.174Z,1.55
2019-03-28T02:28:59.573Z,1.40
2019-03-28T02:31:27.948Z,1.50
2019-03-28T02:33:56.306Z,1.80
2019-03-28T02:36:24.697Z,1.50
2019-03-28T02:38:53.072Z,1.40
2019-03-28T02:41:21.459Z,2.25
2019-03-28T02:43:49.824Z,1.77
2019-03-28T02:46:18.294Z,1.85
2019-03-28T02:48:46.709Z,1.93
2019-03-28T02:51:15.130Z,1.57
2019-03-28T02:53:44.154Z,1.16
2019-03-28T02:56:12.578Z,1.30
2019-03-28T02:58:40.945Z,1.50
2019-03-28T03:01:09.313Z,1.40
2019-03-28T03:03:37.831Z,1.30
2019-03-28T03:06:06.190Z,1.37
2019-03-28T03:08:34.570Z,2.00
2019-03-28T03:11:03.889Z,1.62
2019-03-28T03:13:32.281Z,1.17
2019-03-28T03:16:00.638Z,1.30
2019-03-28T03:18:29.002Z,1.50
2019-03-28T03:20:57.405Z,1.40
2019-03-28T03:23:25.782Z,1.70
2019-03-28T03:25:54.178Z,1.52
2019-03-28T03:28:22.549Z,1.53
2019-03-28T03:30:50.935Z,1.47
2019-03-28T03:33:19.329Z,1.60
2019-03-28T03:35:47.705Z,1.40
2019-03-28T03:38:16.065Z,1.50
2019-03-28T03:40:44.462Z,1.50
2019-03-28T03:43:12.894Z,1.45
2019-03-28T03:45:41.293Z,1.65
2019-03-28T03:48:09.655Z,1.32
2019-03-28T03:50:38.084Z,1.27
2019-03-28T03:53:07.503Z,1.17
2019-03-28T03:55:35.934Z,1.45
2019-03-28T03:58:15.276Z,1.32
2019-03-28T04:00:35.784Z,1.50
2019-03-28T04:03:04.217Z,1.20
2019-03-28T04:05:32.593Z,1.40
2019-03-28T04:08:00.903Z,1.20
2019-03-28T04:10:29.287Z,1.62
2019-03-28T04:12:57.725Z,1.37
2019-03-28T04:15:26.190Z,1.37
2019-03-28T04:17:54.531Z,1.40
2019-03-28T04:20:22.905Z,1.33
2019-03-28T04:22:51.292Z,1.57
2019-03-28T04:25:19.722Z,1.43
2019-03-28T04:27:48.106Z,1.45
2019-03-28T04:30:17.007Z,1.50
2019-03-28T04:32:46.724Z,1.25
2019-03-28T04:35:15.193Z,1.37
2019-03-28T04:37:43.580Z,1.42
2019-03-28T04:40:11.967Z,1.43
2019-03-28T04:42:40.346Z,1.50
2019-03-28T04:45:08.745Z,1.60
2019-03-28T04:47:37.130Z,1.53
2019-03-28T04:50:05.922Z,1.70
2019-03-28T04:52:35.146Z,1.80
2019-03-28T04:55:03.988Z,1.55
2019-03-28T04:57:32.317Z,1.57
2019-03-28T05:00:00.668Z,2.02
2019-03-28T05:02:29.385Z,2.10
2019-03-28T05:04:57.745Z,2.10
2019-03-28T05:07:26.063Z,2.20
2019-03-28T05:09:54.486Z,2.15
2019-03-28T05:12:22.878Z,1.87
2019-03-28T05:14:51.267Z,2.30
2019-03-28T05:17:19.659Z,2.10
2019-03-28T05:19:48.413Z,1.65
2019-03-28T05:22:16.909Z,1.77
2019-03-28T05:24:45.230Z,1.80
2019-03-28T05:27:16.484Z,1.63
2019-03-28T05:29:43.644Z,1.70
2019-03-28T05:32:12.129Z,1.40
2019-03-28T05:34:40.499Z,1.65
2019-03-28T05:37:08.931Z,1.67
2019-03-28T05:39:37.336Z,1.32
2019-03-28T05:42:05.706Z,1.15
2019-03-28T05:44:34.110Z,1.63
2019-03-28T05:47:03.417Z,2.05
2019-03-28T05:49:31.849Z,2.58
2019-03-28T05:52:00.242Z,1.92
2019-03-28T05:54:28.602Z,1.50
2019-03-28T05:56:56.990Z,1.40
2019-03-28T05:59:25.453Z,2.22
2019-03-28T06:01:53.816Z,1.70
2019-03-28T06:04:22.217Z,1.65
2019-03-28T06:06:50.605Z,1.53
2019-03-28T06:09:19.365Z,1.50
2019-03-28T06:11:47.902Z,1.50
2019-03-28T06:14:16.257Z,1.50
2019-03-28T06:16:44.548Z,1.98
2019-03-28T06:19:12.947Z,1.75
2019-03-28T06:21:41.238Z,1.65
2019-03-28T06:24:09.601Z,2.37
2019-03-28T06:26:37.999Z,1.80
2019-03-28T06:29:08.614Z,2.10
2019-03-28T06:31:36.508Z,1.97
2019-03-28T06:34:04.858Z,1.22
2019-03-28T06:36:33.240Z,2.05
2019-03-28T06:39:01.678Z,2.00
2019-03-28T06:41:30.070Z,1.40
2019-03-28T06:43:58.466Z,1.70
2019-03-28T06:46:26.834Z,1.95
2019-03-28T06:48:55.268Z,1.80
2019-03-28T06:51:23.974Z,2.00
2019-03-28T06:53:52.342Z,1.45
2019-03-28T06:56:20.780Z,1.70
2019-03-28T06:58:49.094Z,1.50
2019-03-28T07:01:17.380Z,1.40
2019-03-28T07:03:47.352Z,1.10
2019-03-28T07:06:15.866Z,1.10
2019-03-28T07:08:44.226Z,1.57
2019-03-28T07:11:12.593Z,1.70
2019-03-28T07:13:40.963Z,1.67
2019-03-28T07:16:09.321Z,2.00
2019-03-28T07:18:37.785Z,1.90
2019-03-28T07:21:06.143Z,1.50
2019-03-28T07:23:34.506Z,1.47
2019-03-28T07:26:02.894Z,2.00
2019-03-28T07:28:31.346Z,1.50
2019-03-28T07:30:59.711Z,1.40
2019-03-28T07:33:28.105Z,1.82
2019-03-28T07:35:56.498Z,2.00
2019-03-28T07:38:24.859Z,2.10
2019-03-28T07:40:53.533Z,2.02
2019-03-28T07:43:25.052Z,1.60
2019-03-28T07:45:53.318Z,1.85
2019-03-28T07:48:21.770Z,1.57
2019-03-28T07:50:50.220Z,1.85
2019-03-28T07:53:19.987Z,1.70
2019-03-28T07:55:49.120Z,1.62
2019-03-28T07:58:17.544Z,1.60
2019-03-28T08:00:45.976Z,1.50
2019-03-28T08:03:14.408Z,1.60
2019-03-28T08:05:42.788Z,2.05
2019-03-28T08:08:11.201Z,1.95
2019-03-28T08:10:40.063Z,2.20
2019-03-28T08:13:08.433Z,2.20
2019-03-28T08:15:56.289Z,1.35
2019-03-28T08:18:24.645Z,1.50
2019-03-28T08:20:53.040Z,2.17
2019-03-28T08:23:21.504Z,1.60
2019-03-28T08:25:49.873Z,1.87
2019-03-28T08:28:18.315Z,1.80
2019-03-28T08:30:46.864Z,1.40
2019-03-28T08:33:15.145Z,2.00
2019-03-28T08:35:43.525Z,1.77
2019-03-28T08:38:12.050Z,1.33
2019-03-28T08:40:41.650Z,1.37
2019-03-28T08:43:10.925Z,2.15
2019-03-28T08:45:39.830Z,1.30
2019-03-28T08:48:08.287Z,1.70
2019-03-28T08:50:36.646Z,1.77
2019-03-28T08:53:05.036Z,2.77
2019-03-28T08:55:33.420Z,1.90
2019-03-28T08:58:01.806Z,1.90
2019-03-28T09:00:35.229Z,2.60
2019-03-28T09:03:00.285Z,1.35
2019-03-28T09:05:29.107Z,1.12
2019-03-28T09:07:57.415Z,1.30
2019-03-28T09:10:25.735Z,1.35
2019-03-28T09:12:54.445Z,1.25
2019-03-28T09:15:22.815Z,1.50
2019-03-28T09:17:51.355Z,1.17
2019-03-28T09:20:19.779Z,1.22
2019-03-28T09:22:49.099Z,1.37
2019-03-28T09:25:17.461Z,1.40
2019-03-28T09:27:45.845Z,1.20
2019-03-28T09:30:16.044Z,1.40
2019-03-28T09:32:44.486Z,0.95
2019-03-28T09:35:16.162Z,1.65
2019-03-28T09:37:44.637Z,1.10
2019-03-28T09:40:13.023Z,1.10
2019-03-28T09:42:41.417Z,0.90
2019-03-28T09:45:09.982Z,1.00
2019-03-28T09:47:38.346Z,1.00
2019-03-28T09:50:07.021Z,0.80
2019-03-28T09:52:35.541Z,0.90
2019-03-28T09:55:05.726Z,0.90
2019-03-28T09:57:34.115Z,0.77
2019-03-28T10:00:02.559Z,1.00
2019-03-28T10:02:30.949Z,1.30
2019-03-28T10:04:59.325Z,0.90
2019-03-28T10:07:27.953Z,0.80
2019-03-28T10:09:56.713Z,0.90
2019-03-28T10:12:25.145Z,0.90
2019-03-28T10:14:53.531Z,0.93
2019-03-28T10:17:21.903Z,0.90
2019-03-28T10:19:50.329Z,0.80
2019-03-28T10:22:18.774Z,1.42
2019-03-28T10:24:47.116Z,1.02
2019-03-28T10:27:15.455Z,0.75
2019-03-28T10:29:43.850Z,1.00
2019-03-28T10:32:12.232Z,0.90
2019-03-28T10:34:40.555Z,1.10
2019-03-28T10:37:08.756Z,0.90
2019-03-28T10:39:36.957Z,1.12
2019-03-28T10:42:05.207Z,0.90
2019-03-28T10:44:33.432Z,1.00
2019-03-28T10:47:04.824Z,0.80
2019-03-28T10:49:32.183Z,1.00
2019-03-28T10:52:03.696Z,0.93
2019-03-28T10:54:30.157Z,0.62
2019-03-28T10:56:58.265Z,0.87
2019-03-28T10:59:26.408Z,0.80
2019-03-28T11:01:54.576Z,0.80
2019-03-28T11:04:22.854Z,0.70
2019-03-28T11:06:50.977Z,0.70
2019-03-28T11:09:20.429Z,1.00
2019-03-28T11:11:48.674Z,0.68
2019-03-28T11:14:16.928Z,0.75
2019-03-28T11:16:48.102Z,1.00
2019-03-28T11:19:15.945Z,0.70
2019-03-28T11:21:44.802Z,0.60
2019-03-28T11:24:13.014Z,1.15
2019-03-28T11:26:41.252Z,0.70
2019-03-28T11:29:09.428Z,0.60
2019-03-28T11:31:46.260Z,0.53
2019-03-28T11:34:07.478Z,0.70
2019-03-28T11:36:35.680Z,0.90
2019-03-28T11:39:05.454Z,0.60
2019-03-28T11:41:34.610Z,0.60
2019-03-28T11:44:02.905Z,0.72
2019-03-28T11:46:31.119Z,0.60
2019-03-28T11:49:00.261Z,0.90
2019-03-28T11:51:28.563Z,0.72
2019-03-28T11:53:56.781Z,0.50
2019-03-28T11:56:24.959Z,0.90
2019-03-28T11:58:53.069Z,0.90
2019-03-28T12:01:21.202Z,1.00
2019-03-28T12:03:49.401Z,0.90
2019-03-28T12:06:17.534Z,0.55
2019-03-28T12:08:45.765Z,0.45
2019-03-28T12:11:13.948Z,0.75
2019-03-28T12:13:45.135Z,0.57
2019-03-28T12:16:12.013Z,0.60
2019-03-28T12:18:40.208Z,0.60
2019-03-28T12:21:08.412Z,0.70
2019-03-28T12:23:36.615Z,0.80
2019-03-28T12:26:05.621Z,0.98
2019-03-28T12:28:33.823Z,0.62
2019-03-28T12:31:02.022Z,0.60
2019-03-28T12:33:30.224Z,0.80
2019-03-28T12:35:58.394Z,1.00
2019-03-28T12:38:26.513Z,0.80
2019-03-28T12:40:54.718Z,0.80
2019-03-28T12:43:22.903Z,0.87
2019-03-28T12:45:51.105Z,0.60
2019-03-28T12:48:19.291Z,4.45
2019-03-28T12:50:58.340Z,0.80
2019-03-28T12:53:17.415Z,0.90
2019-03-28T12:55:46.572Z,0.98
2019-03-28T12:58:14.801Z,1.25
2019-03-28T13:00:43.014Z,0.93
2019-03-28T13:03:11.138Z,0.68
2019-03-28T13:05:39.327Z,0.90
2019-03-28T13:08:07.480Z,0.60
2019-03-28T13:10:35.709Z,0.75
2019-03-28T13:13:04.124Z,0.80
2019-03-28T13:15:32.307Z,0.70
2019-03-28T13:18:00.486Z,0.65
2019-03-28T13:20:28.715Z,0.90
2019-03-28T13:22:56.915Z,1.05
2019-03-28T13:25:25.048Z,0.60
2019-03-28T13:27:53.291Z,0.90
2019-03-28T13:30:21.494Z,0.70
2019-03-28T13:32:49.677Z,0.75
2019-03-28T13:35:20.352Z,0.80
2019-03-28T13:37:48.607Z,0.70
2019-03-28T13:40:16.899Z,0.70
2019-03-28T13:42:45.011Z,0.85
2019-03-28T13:45:14.818Z,0.78
2019-03-28T13:47:43.953Z,1.10
2019-03-28T13:50:12.418Z,1.05
2019-03-28T13:52:40.569Z,0.80
2019-03-28T13:55:08.873Z,1.17
2019-03-28T13:57:37.023Z,0.90
2019-03-28T14:00:06.893Z,0.50
2019-03-28T14:02:36.741Z,0.45
2019-03-28T14:05:07.968Z,1.00
2019-03-28T14:07:38.004Z,0.80
2019-03-28T14:10:06.265Z,0.77
2019-03-28T14:12:34.418Z,0.75
2019-03-28T14:15:02.640Z,0.88
2019-03-28T14:17:30.790Z,0.80
2019-03-28T14:19:58.949Z,1.07
2019-03-28T14:22:27.106Z,1.12
2019-03-28T14:24:55.534Z,0.90
2019-03-28T14:27:24.771Z,0.80
2019-03-28T14:29:53.042Z,0.70
2019-03-28T14:32:21.706Z,0.98
2019-03-28T14:34:49.862Z,0.70
2019-03-28T14:37:18.031Z,0.57
2019-03-28T14:39:49.073Z,0.88
2019-03-28T14:42:15.971Z,0.70
2019-03-28T14:44:44.135Z,0.90
2019-03-28T14:47:12.269Z,0.60
2019-03-28T14:49:40.421Z,0.90
2019-03-28T14:52:08.535Z,0.90
2019-03-28T14:54:36.661Z,0.70
2019-03-28T14:57:05.038Z,0.62
2019-03-28T14:59:34.601Z,0.88
2019-03-28T15:02:03.241Z,0.62
2019-03-28T15:04:31.489Z,1.22
2019-03-28T15:06:59.714Z,1.77
2019-03-28T15:09:28.069Z,1.12
2019-03-28T15:11:56.234Z,1.27
2019-03-28T15:14:24.302Z,1.20
2019-03-28T15:16:52.452Z,1.05
2019-03-28T15:19:20.633Z,0.90
2019-03-28T15:21:48.850Z,0.57
2019-03-28T15:24:16.953Z,0.53
2019-03-28T15:26:45.200Z,0.90
2019-03-28T15:29:14.452Z,0.82
2019-03-28T15:31:42.592Z,0.80
2019-03-28T15:34:10.672Z,0.75
2019-03-28T15:36:41.787Z,1.02
2019-03-28T15:39:08.639Z,0.70
2019-03-28T15:41:36.811Z,0.80
2019-03-28T15:44:05.057Z,0.80
2019-03-28T15:46:33.233Z,1.77
2019-03-28T15:49:01.912Z,0.63
2019-03-28T15:51:30.253Z,0.90
2019-03-28T15:53:58.395Z,1.13
2019-03-28T15:56:26.761Z,1.00
2019-03-28T15:58:54.945Z,0.95
2019-03-28T16:01:23.053Z,0.78
2019-03-28T16:03:53.374Z,1.00
2019-03-28T16:06:22.760Z,0.70
2019-03-28T16:08:51.217Z,0.75
2019-03-28T16:11:19.570Z,0.80
2019-03-28T16:13:47.762Z,0.75
2019-03-28T16:16:15.870Z,0.88
2019-03-28T16:18:44.270Z,0.80
2019-03-28T16:21:12.648Z,0.70
2019-03-28T16:23:41.066Z,0.82
2019-03-28T16:26:09.459Z,1.12
2019-03-28T16:28:37.893Z,0.95
2019-03-28T16:31:06.271Z,1.05
2019-03-28T16:33:34.639Z,0.90
2019-03-28T16:36:03.017Z,0.85
2019-03-28T16:38:32.909Z,0.93
2019-03-28T16:41:01.682Z,1.00
2019-03-28T16:43:30.047Z,0.95
2019-03-28T16:45:58.521Z,1.07
2019-03-28T16:48:27.339Z,1.07
2019-03-28T16:50:55.766Z,1.02
2019-03-28T16:53:24.702Z,1.02
2019-03-28T16:55:54.535Z,1.00
2019-03-28T16:58:23.789Z,1.20
2019-03-28T17:00:52.358Z,1.03
2019-03-28T17:03:21.216Z,0.90
2019-03-28T17:05:49.726Z,1.20
2019-03-28T17:08:19.008Z,1.67
2019-03-28T17:10:49.158Z,1.25
2019-03-28T17:13:18.704Z,1.37
2019-03-28T17:15:47.042Z,1.02
2019-03-28T17:18:18.420Z,1.00
2019-03-28T17:20:45.559Z,1.00
2019-03-28T17:23:13.982Z,1.40
2019-03-28T17:25:42.371Z,1.30
2019-03-28T17:28:10.745Z,1.60
2019-03-28T17:30:39.341Z,1.15
2019-03-28T17:33:07.773Z,1.20
2019-03-28T17:35:36.401Z,1.23
2019-03-28T17:38:04.729Z,1.45
2019-03-28T17:40:36.518Z,1.30
2019-03-28T17:43:03.370Z,1.30
2019-03-28T17:45:31.750Z,1.40
2019-03-28T17:48:00.321Z,1.80
2019-03-28T17:50:29.090Z,1.42
2019-03-28T17:52:57.586Z,1.70
2019-03-28T17:55:26.002Z,1.90
2019-03-28T17:57:54.523Z,2.15
2019-03-28T18:00:23.285Z,2.02
2019-03-28T18:02:52.733Z,1.95
2019-03-28T18:05:27.138Z,2.30
2019-03-28T18:07:55.957Z,2.20
2019-03-28T18:10:25.654Z,2.58
2019-03-28T18:12:54.096Z,2.16
2019-03-28T18:15:22.494Z,2.27
2019-03-28T18:17:51.016Z,2.98
2019-03-28T18:20:19.967Z,2.10
2019-03-28T18:22:48.361Z,1.98
2019-03-28T18:25:16.793Z,2.40
2019-03-28T18:27:45.377Z,2.20
2019-03-28T18:30:13.773Z,2.98
2019-03-28T18:32:42.242Z,2.92
2019-03-28T18:35:11.171Z,2.60
2019-03-28T18:37:39.629Z,3.12
2019-03-28T18:40:08.437Z,2.70
2019-03-28T18:42:36.827Z,3.50
2019-03-28T18:45:06.162Z,3.10
2019-03-28T18:47:34.576Z,4.10
2019-03-28T18:50:03.936Z,3.87
2019-03-28T18:52:32.410Z,3.30
2019-03-28T18:55:00.836Z,3.83
2019-03-28T18:57:29.339Z,3.80
2019-03-28T18:59:57.770Z,3.02
2019-03-28T19:02:26.162Z,4.15
2019-03-28T19:04:54.570Z,3.92
2019-03-28T19:07:23.030Z,3.70
2019-03-28T19:09:51.396Z,4.10
2019-03-28T19:12:19.799Z,4.50
2019-03-28T19:14:48.238Z,3.83
2019-03-28T19:17:16.656Z,4.50
2019-03-28T19:19:45.049Z,4.58
2019-03-28T19:22:13.533Z,4.95
2019-03-28T19:24:42.637Z,4.92
2019-03-28T19:27:11.135Z,4.22
2019-03-28T19:29:40.465Z,4.30
2019-03-28T19:32:08.878Z,4.12
2019-03-28T19:34:37.255Z,4.53
2019-03-28T19:37:05.658Z,4.85
2019-03-28T19:39:34.274Z,4.33
2019-03-28T19:42:04.425Z,4.45
2019-03-28T19:44:32.831Z,4.60
2019-03-28T19:47:01.210Z,4.62
2019-03-28T19:49:29.584Z,4.67
2019-03-28T19:51:57.954Z,4.97
2019-03-28T19:54:27.335Z,8.93
2019-03-28T19:56:57.354Z,5.53
2019-03-28T19:59:25.994Z,5.12
2019-03-28T20:01:54.609Z,3.70
2019-03-28T20:04:23.164Z,4.45
2019-03-28T20:06:51.618Z,5.22
2019-03-28T20:09:20.058Z,4.45
2019-03-28T20:11:48.470Z,4.83
2019-03-28T20:14:16.824Z,4.47
2019-03-28T20:16:46.053Z,4.80
2019-03-28T20:19:17.659Z,5.12
2019-03-28T20:21:46.633Z,5.62
2019-03-28T20:24:15.006Z,4.58
2019-03-28T20:26:43.755Z,4.55
2019-03-28T20:29:12.123Z,4.97
2019-03-28T20:31:40.585Z,4.55
2019-03-28T20:34:08.985Z,4.37
2019-03-28T20:36:42.077Z,4.53
2019-03-28T20:39:10.022Z,4.90
2019-03-28T20:41:38.403Z,5.53
2019-03-28T20:44:06.807Z,4.20
2019-03-28T20:46:35.172Z,5.03
2019-03-28T20:49:03.550Z,5.12
2019-03-28T20:51:32.013Z,4.65
2019-03-28T20:54:00.378Z,5.15
2019-03-28T20:56:28.742Z,4.25
2019-03-28T20:58:57.350Z,4.75
2019-03-28T21:01:25.810Z,4.03
2019-03-28T21:03:54.244Z,4.17
2019-03-28T21:06:22.615Z,3.87
2019-03-28T21:08:51.057Z,4.23
2019-03-28T21:11:19.469Z,3.85
2019-03-28T21:13:47.863Z,4.08
2019-03-28T21:16:16.285Z,4.85
2019-03-28T21:18:45.222Z,3.86
2019-03-28T21:21:13.659Z,3.52
2019-03-28T21:23:42.101Z,4.05
2019-03-28T21:26:10.544Z,4.33
2019-03-28T21:28:47.159Z,3.65
2019-03-28T21:31:10.170Z,3.33
2019-03-28T21:33:38.578Z,3.35
2019-03-28T21:36:06.968Z,3.77
2019-03-28T21:38:35.344Z,3.95
2019-03-28T21:41:03.980Z,3.00
2019-03-28T21:46:09.030Z,3.83
2019-03-28T21:48:37.603Z,3.60
2019-03-28T21:51:06.050Z,3.20
2019-03-28T21:53:34.490Z,3.57
2019-03-28T21:56:02.867Z,3.37
2019-03-28T21:58:31.259Z,2.57
2019-03-28T22:00:59.615Z,3.42
2019-03-28T22:03:28.127Z,3.08
2019-03-28T22:05:57.066Z,3.77
2019-03-28T22:08:25.815Z,3.87
2019-03-28T22:10:54.200Z,3.65
2019-03-28T22:13:22.635Z,4.55
2019-03-28T22:15:51.146Z,3.12
2019-03-28T22:18:19.533Z,3.15
2019-03-28T22:20:47.965Z,3.08
2019-03-28T22:23:16.372Z,4.15
2019-03-28T22:25:44.826Z,3.87
2019-03-28T22:28:13.285Z,3.30
2019-03-28T22:30:41.742Z,3.58
2019-03-28T22:33:10.112Z,3.30
2019-03-28T22:35:38.490Z,3.42
2019-03-28T22:38:06.854Z,3.16
2019-03-28T22:40:35.238Z,2.85
2019-03-28T22:43:03.714Z,3.83
2019-03-28T22:45:32.155Z,4.10
2019-03-28T22:48:10.610Z,3.42
2019-03-28T22:50:32.262Z,3.67
2019-03-28T22:53:00.626Z,3.20
2019-03-28T22:55:29.096Z,3.45
2019-03-28T22:57:57.474Z,3.40
2019-03-28T23:00:44.947Z,4.40
2019-03-28T23:03:14.253Z,3.80
2019-03-28T23:05:42.643Z,3.72
2019-03-28T23:08:11.010Z,3.80
2019-03-28T23:10:39.443Z,3.53
2019-03-28T23:13:07.892Z,3.62
2019-03-28T23:15:37.269Z,3.40
2019-03-28T23:18:05.974Z,2.77
2019-03-28T23:20:34.416Z,2.87
2019-03-28T23:23:02.790Z,3.40
2019-03-28T23:25:50.546Z,3.70
2019-03-28T23:28:19.061Z,3.75
2019-03-28T23:30:47.631Z,3.00
2019-03-28T23:33:16.100Z,3.83
2019-03-28T23:35:44.564Z,4.08
2019-03-28T23:38:12.954Z,3.40
2019-03-28T23:40:41.372Z,3.50
2019-03-28T23:43:09.936Z,3.47
2019-03-28T23:45:38.522Z,4.05
2019-03-28T23:48:07.103Z,3.10
2019-03-28T23:50:35.502Z,3.50
2019-03-28T23:53:03.960Z,3.25
2019-03-28T23:55:32.360Z,3.72
2019-03-28T23:58:00.806Z,4.08
